Fort Spring, West Virginia
Current Conditions -  °F | °C
As of 12:15 PM on Sunday 23 Nov 2014 (Local Time) from KLWB Reporting Station
Clear Clear  
Wind Chill: 41°   Ceiling: Unl
Heat Index: 45°   Visibility: 10mi
Dew Point: 27°   Wind: 8mph
Humidity: 49%   Direction: 20°NNE
Pressure: 30.08"   Gusts: NA
Location:  37.74°N, 80.54°W
Report Text: KLWB 231715Z AUTO 02007KT 10SM CLR 07/M03 A3008 RMK AO2 T00721030
Loading
Personal Weather Stations






























Interactive Weather Map New forecast layout! Learn more

10-Day Weather Forecast

Advertisements
Track Severe Weather on mobile